sensor_id;sensor_type;location;lat;lon;timestamp;temperature;humidity
11617;DHT22;5864;52.998;9.068;2023-01-05T00:01:58;9.80;99.90
11617;DHT22;5864;52.998;9.068;2023-01-05T00:04:25;9.90;99.90
11617;DHT22;5864;52.998;9.068;2023-01-05T00:06:53;9.80;99.90
11617;DHT22;5864;52.998;9.068;2023-01-05T00:09:20;9.90;99.90
11617;DHT22;5864;52.998;9.068;2023-01-05T00:11:48;9.80;99.90
11617;DHT22;5864;52.998;9.068;2023-01-05T00:14:33;9.90;99.90
11617;DHT22;5864;52.998;9.068;2023-01-05T00:17:22;9.90;99.90
11617;DHT22;5864;52.998;9.068;2023-01-05T00:20:12;9.90;99.90
11617;DHT22;5864;52.998;9.068;2023-01-05T00:23:00;9.90;99.90
11617;DHT22;5864;52.998;9.068;2023-01-05T00:25:30;10.00;99.90
11617;DHT22;5864;52.998;9.068;2023-01-05T00:27:59;10.00;99.90
11617;DHT22;5864;52.998;9.068;2023-01-05T00:30:28;10.00;99.90
11617;DHT22;5864;52.998;9.068;2023-01-05T00:32:57;10.00;99.90
11617;DHT22;5864;52.998;9.068;2023-01-05T00:35:25;10.00;99.90
11617;DHT22;5864;52.998;9.068;2023-01-05T00:37:53;10.00;99.90
11617;DHT22;5864;52.998;9.068;2023-01-05T00:40:21;10.00;99.90
11617;DHT22;5864;52.998;9.068;2023-01-05T00:42:49;10.00;99.90
11617;DHT22;5864;52.998;9.068;2023-01-05T00:45:17;10.00;99.90
11617;DHT22;5864;52.998;9.068;2023-01-05T00:47:45;9.90;99.90
11617;DHT22;5864;52.998;9.068;2023-01-05T00:50:16;9.90;99.90
11617;DHT22;5864;52.998;9.068;2023-01-05T00:52:45;9.80;99.90
11617;DHT22;5864;52.998;9.068;2023-01-05T00:55:13;9.80;99.90
11617;DHT22;5864;52.998;9.068;2023-01-05T00:57:40;9.80;99.90
11617;DHT22;5864;52.998;9.068;2023-01-05T01:00:12;9.90;99.90
11617;DHT22;5864;52.998;9.068;2023-01-05T01:02:39;9.90;99.90
11617;DHT22;5864;52.998;9.068;2023-01-05T01:05:07;9.90;99.90
11617;DHT22;5864;52.998;9.068;2023-01-05T01:07:36;9.90;99.90
11617;DHT22;5864;52.998;9.068;2023-01-05T01:10:05;9.90;99.90
11617;DHT22;5864;52.998;9.068;2023-01-05T01:12:33;9.80;99.90
11617;DHT22;5864;52.998;9.068;2023-01-05T01:15:01;9.80;99.90
11617;DHT22;5864;52.998;9.068;2023-01-05T01:17:30;9.80;99.90
11617;DHT22;5864;52.998;9.068;2023-01-05T01:19:57;9.70;99.90
11617;DHT22;5864;52.998;9.068;2023-01-05T01:22:25;9.70;99.90
11617;DHT22;5864;52.998;9.068;2023-01-05T01:24:54;9.70;99.90
11617;DHT22;5864;52.998;9.068;2023-01-05T01:27:21;9.70;99.90
11617;DHT22;5864;52.998;9.068;2023-01-05T01:29:48;9.70;99.90
11617;DHT22;5864;52.998;9.068;2023-01-05T01:32:16;9.70;99.90
11617;DHT22;5864;52.998;9.068;2023-01-05T01:34:44;9.70;99.90
11617;DHT22;5864;52.998;9.068;2023-01-05T01:37:11;9.70;99.90
11617;DHT22;5864;52.998;9.068;2023-01-05T01:39:39;9.80;99.90
11617;DHT22;5864;52.998;9.068;2023-01-05T01:42:11;9.80;99.90
11617;DHT22;5864;52.998;9.068;2023-01-05T01:44:54;9.70;99.90
11617;DHT22;5864;52.998;9.068;2023-01-05T01:47:30;9.80;99.90
11617;DHT22;5864;52.998;9.068;2023-01-05T01:50:01;9.70;99.90
11617;DHT22;5864;52.998;9.068;2023-01-05T01:52:29;9.70;99.90
11617;DHT22;5864;52.998;9.068;2023-01-05T01:55:00;9.60;99.90
11617;DHT22;5864;52.998;9.068;2023-01-05T01:57:29;9.60;99.90
11617;DHT22;5864;52.998;9.068;2023-01-05T01:59:59;9.60;99.90
11617;DHT22;5864;52.998;9.068;2023-01-05T02:02:28;9.60;99.90
11617;DHT22;5864;52.998;9.068;2023-01-05T02:05:00;9.60;99.90
11617;DHT22;5864;52.998;9.068;2023-01-05T02:07:29;9.60;99.90
11617;DHT22;5864;52.998;9.068;2023-01-05T02:09:58;9.70;99.90
11617;DHT22;5864;52.998;9.068;2023-01-05T02:12:37;9.70;99.90
11617;DHT22;5864;52.998;9.068;2023-01-05T02:15:14;9.60;99.90
11617;DHT22;5864;52.998;9.068;2023-01-05T02:17:56;9.60;99.90
11617;DHT22;5864;52.998;9.068;2023-01-05T02:23:45;9.60;99.90
11617;DHT22;5864;52.998;9.068;2023-01-05T02:26:58;9.60;99.90
11617;DHT22;5864;52.998;9.068;2023-01-05T02:30:01;9.60;99.90
11617;DHT22;5864;52.998;9.068;2023-01-05T02:32:34;9.60;99.90
11617;DHT22;5864;52.998;9.068;2023-01-05T02:35:11;9.60;99.90
11617;DHT22;5864;52.998;9.068;2023-01-05T02:37:44;9.60;99.90
11617;DHT22;5864;52.998;9.068;2023-01-05T02:40:14;9.60;99.90
11617;DHT22;5864;52.998;9.068;2023-01-05T02:42:45;9.60;99.90
11617;DHT22;5864;52.998;9.068;2023-01-05T02:45:15;9.70;99.90
11617;DHT22;5864;52.998;9.068;2023-01-05T02:47:44;9.70;99.90
11617;DHT22;5864;52.998;9.068;2023-01-05T02:50:15;9.60;99.90
11617;DHT22;5864;52.998;9.068;2023-01-05T02:52:49;9.60;99.90
11617;DHT22;5864;52.998;9.068;2023-01-05T02:55:18;9.70;99.90
11617;DHT22;5864;52.998;9.068;2023-01-05T02:57:52;9.60;99.90
11617;DHT22;5864;52.998;9.068;2023-01-05T03:00:23;9.60;99.90
11617;DHT22;5864;52.998;9.068;2023-01-05T03:02:55;9.60;99.90
11617;DHT22;5864;52.998;9.068;2023-01-05T03:05:27;9.60;99.90
11617;DHT22;5864;52.998;9.068;2023-01-05T03:07:56;9.50;99.90
11617;DHT22;5864;52.998;9.068;2023-01-05T03:10:35;9.50;99.90
11617;DHT22;5864;52.998;9.068;2023-01-05T03:13:22;9.50;99.90
11617;DHT22;5864;52.998;9.068;2023-01-05T03:16:10;9.40;99.90
11617;DHT22;5864;52.998;9.068;2023-01-05T03:18:40;9.40;99.90
11617;DHT22;5864;52.998;9.068;2023-01-05T03:21:22;9.40;99.90
11617;DHT22;5864;52.998;9.068;2023-01-05T03:23:50;9.40;99.90
11617;DHT22;5864;52.998;9.068;2023-01-05T03:26:38;9.50;99.90
11617;DHT22;5864;52.998;9.068;2023-01-05T03:29:23;9.50;99.90
11617;DHT22;5864;52.998;9.068;2023-01-05T03:32:20;9.50;99.90
11617;DHT22;5864;52.998;9.068;2023-01-05T03:35:11;9.50;99.90
11617;DHT22;5864;52.998;9.068;2023-01-05T03:38:03;9.50;99.90
11617;DHT22;5864;52.998;9.068;2023-01-05T03:40:34;9.50;99.90
11617;DHT22;5864;52.998;9.068;2023-01-05T03:43:03;9.50;99.90
11617;DHT22;5864;52.998;9.068;2023-01-05T03:45:35;9.50;99.90
11617;DHT22;5864;52.998;9.068;2023-01-05T03:48:04;9.50;99.90
11617;DHT22;5864;52.998;9.068;2023-01-05T03:50:34;9.50;99.90
11617;DHT22;5864;52.998;9.068;2023-01-05T03:53:01;9.50;99.90
11617;DHT22;5864;52.998;9.068;2023-01-05T03:55:29;9.40;99.90
11617;DHT22;5864;52.998;9.068;2023-01-05T03:57:56;9.50;99.90
11617;DHT22;5864;52.998;9.068;2023-01-05T04:00:24;9.40;99.90
11617;DHT22;5864;52.998;9.068;2023-01-05T04:02:51;9.40;99.90
11617;DHT22;5864;52.998;9.068;2023-01-05T04:05:19;9.50;99.90
11617;DHT22;5864;52.998;9.068;2023-01-05T04:07:47;9.50;99.90
11617;DHT22;5864;52.998;9.068;2023-01-05T04:10:15;9.60;99.90
11617;DHT22;5864;52.998;9.068;2023-01-05T04:12:42;9.60;99.90
11617;DHT22;5864;52.998;9.068;2023-01-05T04:15:11;9.60;99.90
11617;DHT22;5864;52.998;9.068;2023-01-05T04:17:41;9.50;99.90
11617;DHT22;5864;52.998;9.068;2023-01-05T04:20:10;9.60;99.90
11617;DHT22;5864;52.998;9.068;2023-01-05T04:22:40;9.50;99.90
11617;DHT22;5864;52.998;9.068;2023-01-05T04:25:09;9.60;99.90
11617;DHT22;5864;52.998;9.068;2023-01-05T04:27:37;9.50;99.90
11617;DHT22;5864;52.998;9.068;2023-01-05T04:30:05;9.50;99.90
11617;DHT22;5864;52.998;9.068;2023-01-05T04:32:33;9.50;99.90
11617;DHT22;5864;52.998;9.068;2023-01-05T04:35:00;9.60;99.90
11617;DHT22;5864;52.998;9.068;2023-01-05T04:37:28;9.60;99.90
11617;DHT22;5864;52.998;9.068;2023-01-05T04:39:55;9.60;99.90
11617;DHT22;5864;52.998;9.068;2023-01-05T04:42:24;9.60;99.90
11617;DHT22;5864;52.998;9.068;2023-01-05T04:44:51;9.60;99.90
11617;DHT22;5864;52.998;9.068;2023-01-05T04:47:19;9.60;99.90
11617;DHT22;5864;52.998;9.068;2023-01-05T04:49:47;9.60;99.90
11617;DHT22;5864;52.998;9.068;2023-01-05T04:52:14;9.50;99.90
11617;DHT22;5864;52.998;9.068;2023-01-05T04:54:42;9.60;99.90
11617;DHT22;5864;52.998;9.068;2023-01-05T04:57:09;9.50;99.90
11617;DHT22;5864;52.998;9.068;2023-01-05T04:59:38;9.60;99.90
11617;DHT22;5864;52.998;9.068;2023-01-05T05:02:05;9.60;99.90
11617;DHT22;5864;52.998;9.068;2023-01-05T05:04:33;9.60;99.90
11617;DHT22;5864;52.998;9.068;2023-01-05T05:07:01;9.60;99.90
11617;DHT22;5864;52.998;9.068;2023-01-05T05:09:29;9.50;99.90
11617;DHT22;5864;52.998;9.068;2023-01-05T05:11:56;9.50;99.90
11617;DHT22;5864;52.998;9.068;2023-01-05T05:14:24;9.50;99.90
11617;DHT22;5864;52.998;9.068;2023-01-05T05:16:52;9.40;99.90
11617;DHT22;5864;52.998;9.068;2023-01-05T05:19:20;9.40;99.90
11617;DHT22;5864;52.998;9.068;2023-01-05T05:21:47;9.40;99.90
11617;DHT22;5864;52.998;9.068;2023-01-05T05:24:15;9.40;99.90
11617;DHT22;5864;52.998;9.068;2023-01-05T05:26:42;9.40;99.90
11617;DHT22;5864;52.998;9.068;2023-01-05T05:29:10;9.40;99.90
11617;DHT22;5864;52.998;9.068;2023-01-05T05:31:38;9.40;99.90
11617;DHT22;5864;52.998;9.068;2023-01-05T05:34:07;9.40;99.90
11617;DHT22;5864;52.998;9.068;2023-01-05T05:36:35;9.40;99.90
11617;DHT22;5864;52.998;9.068;2023-01-05T05:39:03;9.30;99.90
11617;DHT22;5864;52.998;9.068;2023-01-05T05:41:30;9.30;99.90
11617;DHT22;5864;52.998;9.068;2023-01-05T05:43:58;9.30;99.90
11617;DHT22;5864;52.998;9.068;2023-01-05T05:46:27;9.30;99.90
11617;DHT22;5864;52.998;9.068;2023-01-05T05:48:56;9.20;99.90
11617;DHT22;5864;52.998;9.068;2023-01-05T05:51:27;9.20;99.90
11617;DHT22;5864;52.998;9.068;2023-01-05T05:53:55;9.30;99.90
11617;DHT22;5864;52.998;9.068;2023-01-05T05:56:22;9.20;99.90
11617;DHT22;5864;52.998;9.068;2023-01-05T05:58:49;9.30;99.90
11617;DHT22;5864;52.998;9.068;2023-01-05T06:01:17;9.30;99.90
11617;DHT22;5864;52.998;9.068;2023-01-05T06:03:44;9.30;99.90
11617;DHT22;5864;52.998;9.068;2023-01-05T06:06:12;9.30;99.90
11617;DHT22;5864;52.998;9.068;2023-01-05T06:08:41;9.40;99.90
11617;DHT22;5864;52.998;9.068;2023-01-05T06:11:08;9.40;99.90
11617;DHT22;5864;52.998;9.068;2023-01-05T06:13:35;9.40;99.90
11617;DHT22;5864;52.998;9.068;2023-01-05T06:16:04;9.40;99.90
11617;DHT22;5864;52.998;9.068;2023-01-05T06:18:32;9.40;99.90
11617;DHT22;5864;52.998;9.068;2023-01-05T06:21:00;9.40;99.90
11617;DHT22;5864;52.998;9.068;2023-01-05T06:23:27;9.40;99.90
11617;DHT22;5864;52.998;9.068;2023-01-05T06:25:56;9.30;99.90
11617;DHT22;5864;52.998;9.068;2023-01-05T06:28:24;9.30;99.90
11617;DHT22;5864;52.998;9.068;2023-01-05T06:30:51;9.30;99.90
11617;DHT22;5864;52.998;9.068;2023-01-05T06:33:18;9.30;99.90
11617;DHT22;5864;52.998;9.068;2023-01-05T06:35:46;9.30;99.90
11617;DHT22;5864;52.998;9.068;2023-01-05T06:38:13;9.40;99.90
11617;DHT22;5864;52.998;9.068;2023-01-05T06:40:41;9.40;99.90
11617;DHT22;5864;52.998;9.068;2023-01-05T06:43:11;9.40;99.90
11617;DHT22;5864;52.998;9.068;2023-01-05T06:45:38;9.40;99.90
11617;DHT22;5864;52.998;9.068;2023-01-05T06:48:06;9.40;99.90
11617;DHT22;5864;52.998;9.068;2023-01-05T06:50:34;9.40;99.90
11617;DHT22;5864;52.998;9.068;2023-01-05T06:53:01;9.40;99.90
11617;DHT22;5864;52.998;9.068;2023-01-05T06:55:29;9.30;99.90
11617;DHT22;5864;52.998;9.068;2023-01-05T06:57:56;9.30;99.90
11617;DHT22;5864;52.998;9.068;2023-01-05T07:00:25;9.30;99.90
11617;DHT22;5864;52.998;9.068;2023-01-05T07:02:52;9.30;99.90
11617;DHT22;5864;52.998;9.068;2023-01-05T07:05:20;9.20;99.90
11617;DHT22;5864;52.998;9.068;2023-01-05T07:07:48;9.20;99.90
11617;DHT22;5864;52.998;9.068;2023-01-05T07:10:15;9.30;99.90
11617;DHT22;5864;52.998;9.068;2023-01-05T07:12:43;9.20;99.90
11617;DHT22;5864;52.998;9.068;2023-01-05T07:15:10;9.20;99.90
11617;DHT22;5864;52.998;9.068;2023-01-05T07:17:39;9.20;99.90
11617;DHT22;5864;52.998;9.068;2023-01-05T07:20:08;9.10;99.90
11617;DHT22;5864;52.998;9.068;2023-01-05T07:22:35;9.10;99.90
11617;DHT22;5864;52.998;9.068;2023-01-05T07:25:03;9.20;99.90
11617;DHT22;5864;52.998;9.068;2023-01-05T07:27:30;9.10;99.90
11617;DHT22;5864;52.998;9.068;2023-01-05T07:29:58;9.20;99.90
11617;DHT22;5864;52.998;9.068;2023-01-05T07:32:25;9.20;99.90
11617;DHT22;5864;52.998;9.068;2023-01-05T07:34:54;9.20;99.90
11617;DHT22;5864;52.998;9.068;2023-01-05T07:37:22;9.20;99.90
11617;DHT22;5864;52.998;9.068;2023-01-05T07:39:50;9.20;99.90
11617;DHT22;5864;52.998;9.068;2023-01-05T07:42:18;9.10;99.90
11617;DHT22;5864;52.998;9.068;2023-01-05T07:44:45;9.20;99.90
11617;DHT22;5864;52.998;9.068;2023-01-05T07:47:12;9.10;99.90
11617;DHT22;5864;52.998;9.068;2023-01-05T07:49:40;9.20;99.90
11617;DHT22;5864;52.998;9.068;2023-01-05T07:52:08;9.20;99.90
11617;DHT22;5864;52.998;9.068;2023-01-05T07:54:36;9.20;99.90
11617;DHT22;5864;52.998;9.068;2023-01-05T07:57:03;9.20;99.90
11617;DHT22;5864;52.998;9.068;2023-01-05T07:59:31;9.20;99.90
11617;DHT22;5864;52.998;9.068;2023-01-05T08:01:58;9.10;99.90
11617;DHT22;5864;52.998;9.068;2023-01-05T08:04:26;9.00;99.90
11617;DHT22;5864;52.998;9.068;2023-01-05T08:06:53;8.90;99.90
11617;DHT22;5864;52.998;9.068;2023-01-05T08:09:22;8.90;99.90
11617;DHT22;5864;52.998;9.068;2023-01-05T08:12:08;8.80;99.90
11617;DHT22;5864;52.998;9.068;2023-01-05T08:14:35;8.80;99.90
11617;DHT22;5864;52.998;9.068;2023-01-05T08:17:02;8.80;99.90
11617;DHT22;5864;52.998;9.068;2023-01-05T08:19:30;8.80;99.90
11617;DHT22;5864;52.998;9.068;2023-01-05T08:21:57;8.80;99.90
11617;DHT22;5864;52.998;9.068;2023-01-05T08:24:27;8.80;99.90
11617;DHT22;5864;52.998;9.068;2023-01-05T08:26:54;8.80;99.90
11617;DHT22;5864;52.998;9.068;2023-01-05T08:29:22;8.90;99.90
11617;DHT22;5864;52.998;9.068;2023-01-05T08:31:49;8.90;99.90
11617;DHT22;5864;52.998;9.068;2023-01-05T08:34:17;9.00;99.90
11617;DHT22;5864;52.998;9.068;2023-01-05T08:36:44;9.00;99.90
11617;DHT22;5864;52.998;9.068;2023-01-05T08:39:12;9.10;99.90
11617;DHT22;5864;52.998;9.068;2023-01-05T08:41:41;9.10;99.90
11617;DHT22;5864;52.998;9.068;2023-01-05T08:44:12;9.20;99.90
11617;DHT22;5864;52.998;9.068;2023-01-05T08:46:40;9.10;99.90
11617;DHT22;5864;52.998;9.068;2023-01-05T08:49:08;9.10;99.90
11617;DHT22;5864;52.998;9.068;2023-01-05T08:51:36;9.10;99.90
11617;DHT22;5864;52.998;9.068;2023-01-05T08:54:04;9.10;99.90
11617;DHT22;5864;52.998;9.068;2023-01-05T08:56:31;9.10;99.90
11617;DHT22;5864;52.998;9.068;2023-01-05T08:59:00;9.20;99.90
11617;DHT22;5864;52.998;9.068;2023-01-05T09:01:28;9.40;99.90
11617;DHT22;5864;52.998;9.068;2023-01-05T09:03:56;9.30;99.90
11617;DHT22;5864;52.998;9.068;2023-01-05T09:06:26;9.10;99.90
11617;DHT22;5864;52.998;9.068;2023-01-05T09:08:54;9.00;99.90
11617;DHT22;5864;52.998;9.068;2023-01-05T09:11:23;9.20;99.90
11617;DHT22;5864;52.998;9.068;2023-01-05T09:13:53;9.70;99.90
11617;DHT22;5864;52.998;9.068;2023-01-05T09:16:24;10.40;99.90
11617;DHT22;5864;52.998;9.068;2023-01-05T09:18:52;10.90;99.90
11617;DHT22;5864;52.998;9.068;2023-01-05T09:21:22;11.70;99.90
11617;DHT22;5864;52.998;9.068;2023-01-05T09:23:50;12.90;99.90
11617;DHT22;5864;52.998;9.068;2023-01-05T09:26:17;12.80;99.90
11617;DHT22;5864;52.998;9.068;2023-01-05T09:28:45;13.20;99.90
11617;DHT22;5864;52.998;9.068;2023-01-05T09:31:14;13.20;99.90
11617;DHT22;5864;52.998;9.068;2023-01-05T09:33:43;13.00;99.90
11617;DHT22;5864;52.998;9.068;2023-01-05T09:36:13;13.20;99.90
11617;DHT22;5864;52.998;9.068;2023-01-05T09:38:41;12.70;99.90
11617;DHT22;5864;52.998;9.068;2023-01-05T09:41:15;13.20;99.90
11617;DHT22;5864;52.998;9.068;2023-01-05T09:43:46;13.00;99.90
11617;DHT22;5864;52.998;9.068;2023-01-05T09:46:17;12.80;99.90
11617;DHT22;5864;52.998;9.068;2023-01-05T09:48:51;12.80;99.90
11617;DHT22;5864;52.998;9.068;2023-01-05T09:51:19;12.70;99.90
11617;DHT22;5864;52.998;9.068;2023-01-05T09:53:47;12.40;99.90
11617;DHT22;5864;52.998;9.068;2023-01-05T09:56:25;12.30;99.90
11617;DHT22;5864;52.998;9.068;2023-01-05T09:59:00;12.40;99.90
11617;DHT22;5864;52.998;9.068;2023-01-05T10:01:30;12.90;99.90
11617;DHT22;5864;52.998;9.068;2023-01-05T10:04:02;13.00;99.90
11617;DHT22;5864;52.998;9.068;2023-01-05T10:06:33;13.30;99.90
11617;DHT22;5864;52.998;9.068;2023-01-05T10:09:04;13.30;99.90
11617;DHT22;5864;52.998;9.068;2023-01-05T10:11:38;13.20;99.90
11617;DHT22;5864;52.998;9.068;2023-01-05T10:14:31;13.00;99.90
11617;DHT22;5864;52.998;9.068;2023-01-05T10:17:01;12.00;99.90
11617;DHT22;5864;52.998;9.068;2023-01-05T10:19:30;11.80;99.90
11617;DHT22;5864;52.998;9.068;2023-01-05T10:22:03;11.40;99.90
11617;DHT22;5864;52.998;9.068;2023-01-05T10:24:41;11.10;99.90
11617;DHT22;5864;52.998;9.068;2023-01-05T10:27:14;11.00;99.90
11617;DHT22;5864;52.998;9.068;2023-01-05T10:29:46;10.60;99.90
11617;DHT22;5864;52.998;9.068;2023-01-05T10:32:22;10.50;99.90
11617;DHT22;5864;52.998;9.068;2023-01-05T10:34:57;10.30;99.90
11617;DHT22;5864;52.998;9.068;2023-01-05T10:40:38;10.20;99.90
11617;DHT22;5864;52.998;9.068;2023-01-05T10:43:25;10.10;99.90
11617;DHT22;5864;52.998;9.068;2023-01-05T10:45:57;10.10;99.90
11617;DHT22;5864;52.998;9.068;2023-01-05T10:48:28;10.20;99.90
11617;DHT22;5864;52.998;9.068;2023-01-05T10:50:58;10.20;99.90
11617;DHT22;5864;52.998;9.068;2023-01-05T10:53:28;10.20;99.90
11617;DHT22;5864;52.998;9.068;2023-01-05T10:56:02;10.20;99.90
11617;DHT22;5864;52.998;9.068;2023-01-05T10:58:31;10.20;99.90
11617;DHT22;5864;52.998;9.068;2023-01-05T11:01:02;10.20;99.90
11617;DHT22;5864;52.998;9.068;2023-01-05T11:03:36;10.10;99.90
11617;DHT22;5864;52.998;9.068;2023-01-05T11:06:18;10.00;99.90
11617;DHT22;5864;52.998;9.068;2023-01-05T11:08:46;9.90;99.90
11617;DHT22;5864;52.998;9.068;2023-01-05T11:11:20;9.90;99.90
11617;DHT22;5864;52.998;9.068;2023-01-05T11:13:49;9.90;99.90
11617;DHT22;5864;52.998;9.068;2023-01-05T11:16:20;9.80;99.90
11617;DHT22;5864;52.998;9.068;2023-01-05T11:18:50;9.80;99.90
11617;DHT22;5864;52.998;9.068;2023-01-05T11:21:21;9.80;99.90
11617;DHT22;5864;52.998;9.068;2023-01-05T11:23:50;9.80;99.90
11617;DHT22;5864;52.998;9.068;2023-01-05T11:26:30;9.20;99.90
11617;DHT22;5864;52.998;9.068;2023-01-05T11:29:13;9.80;99.90
11617;DHT22;5864;52.998;9.068;2023-01-05T11:31:47;9.70;99.90
11617;DHT22;5864;52.998;9.068;2023-01-05T11:34:25;9.70;99.90
11617;DHT22;5864;52.998;9.068;2023-01-05T11:36:57;9.70;99.90
11617;DHT22;5864;52.998;9.068;2023-01-05T11:39:28;9.70;99.90
11617;DHT22;5864;52.998;9.068;2023-01-05T11:42:14;9.60;99.90
11617;DHT22;5864;52.998;9.068;2023-01-05T11:44:46;9.70;99.90
11617;DHT22;5864;52.998;9.068;2023-01-05T11:47:20;9.70;99.90
11617;DHT22;5864;52.998;9.068;2023-01-05T11:49:49;9.60;99.90
11617;DHT22;5864;52.998;9.068;2023-01-05T11:52:31;9.60;99.90
11617;DHT22;5864;52.998;9.068;2023-01-05T11:55:21;9.50;99.90
11617;DHT22;5864;52.998;9.068;2023-01-05T11:57:53;9.50;99.90
11617;DHT22;5864;52.998;9.068;2023-01-05T12:00:22;9.50;99.90
11617;DHT22;5864;52.998;9.068;2023-01-05T12:03:17;9.50;99.90
11617;DHT22;5864;52.998;9.068;2023-01-05T12:05:49;9.50;99.90
11617;DHT22;5864;52.998;9.068;2023-01-05T12:08:23;9.50;99.90
11617;DHT22;5864;52.998;9.068;2023-01-05T12:11:03;9.50;99.90
11617;DHT22;5864;52.998;9.068;2023-01-05T12:13:56;9.40;99.90
11617;DHT22;5864;52.998;9.068;2023-01-05T12:16:37;9.30;99.90
11617;DHT22;5864;52.998;9.068;2023-01-05T12:19:40;9.40;99.90
11617;DHT22;5864;52.998;9.068;2023-01-05T12:25:41;9.50;99.90
11617;DHT22;5864;52.998;9.068;2023-01-05T12:28:30;9.60;99.90
11617;DHT22;5864;52.998;9.068;2023-01-05T12:31:21;9.70;99.90
11617;DHT22;5864;52.998;9.068;2023-01-05T12:37:00;10.00;99.90
11617;DHT22;5864;52.998;9.068;2023-01-05T12:39:54;10.10;99.90
11617;DHT22;5864;52.998;9.068;2023-01-05T12:42:51;10.10;99.90
11617;DHT22;5864;52.998;9.068;2023-01-05T12:45:52;10.30;99.90
11617;DHT22;5864;52.998;9.068;2023-01-05T12:48:27;10.30;99.90
11617;DHT22;5864;52.998;9.068;2023-01-05T12:51:01;10.30;99.90
11617;DHT22;5864;52.998;9.068;2023-01-05T12:53:40;10.30;99.90
11617;DHT22;5864;52.998;9.068;2023-01-05T12:56:16;10.30;99.90
11617;DHT22;5864;52.998;9.068;2023-01-05T13:01:37;10.50;99.90
11617;DHT22;5864;52.998;9.068;2023-01-05T13:04:13;10.50;99.90
11617;DHT22;5864;52.998;9.068;2023-01-05T13:06:47;10.60;99.90
11617;DHT22;5864;52.998;9.068;2023-01-05T13:09:20;10.50;99.90
11617;DHT22;5864;52.998;9.068;2023-01-05T13:11:51;10.40;99.90
11617;DHT22;5864;52.998;9.068;2023-01-05T13:14:23;10.30;99.90
11617;DHT22;5864;52.998;9.068;2023-01-05T13:16:54;10.10;99.90
11617;DHT22;5864;52.998;9.068;2023-01-05T13:19:29;10.00;99.90
11617;DHT22;5864;52.998;9.068;2023-01-05T13:21:58;10.00;99.90
11617;DHT22;5864;52.998;9.068;2023-01-05T13:24:30;10.00;99.90
11617;DHT22;5864;52.998;9.068;2023-01-05T13:27:00;10.00;99.90
11617;DHT22;5864;52.998;9.068;2023-01-05T13:29:32;10.00;99.90
11617;DHT22;5864;52.998;9.068;2023-01-05T13:32:22;10.10;99.90
11617;DHT22;5864;52.998;9.068;2023-01-05T13:44:05;10.30;99.90
11617;DHT22;5864;52.998;9.068;2023-01-05T13:46:57;10.20;99.90
11617;DHT22;5864;52.998;9.068;2023-01-05T13:52:25;10.10;99.90
11617;DHT22;5864;52.998;9.068;2023-01-05T13:54:57;10.20;99.90
11617;DHT22;5864;52.998;9.068;2023-01-05T13:57:34;10.20;99.90
11617;DHT22;5864;52.998;9.068;2023-01-05T14:00:06;10.20;99.90
11617;DHT22;5864;52.998;9.068;2023-01-05T14:02:39;10.20;99.90
11617;DHT22;5864;52.998;9.068;2023-01-05T14:05:15;10.20;99.90
11617;DHT22;5864;52.998;9.068;2023-01-05T14:07:49;10.20;99.90
11617;DHT22;5864;52.998;9.068;2023-01-05T14:10:22;10.10;99.90
11617;DHT22;5864;52.998;9.068;2023-01-05T14:12:51;10.10;99.90
11617;DHT22;5864;52.998;9.068;2023-01-05T14:15:34;10.10;99.90
11617;DHT22;5864;52.998;9.068;2023-01-05T14:18:04;10.00;99.90
11617;DHT22;5864;52.998;9.068;2023-01-05T14:20:44;10.00;99.90
11617;DHT22;5864;52.998;9.068;2023-01-05T14:23:53;10.00;99.90
11617;DHT22;5864;52.998;9.068;2023-01-05T14:32:37;9.90;99.90
11617;DHT22;5864;52.998;9.068;2023-01-05T14:35:29;9.80;99.90
11617;DHT22;5864;52.998;9.068;2023-01-05T14:38:01;9.60;99.90
11617;DHT22;5864;52.998;9.068;2023-01-05T14:40:34;9.50;99.90
11617;DHT22;5864;52.998;9.068;2023-01-05T14:43:05;9.50;99.90
11617;DHT22;5864;52.998;9.068;2023-01-05T14:45:35;9.40;99.90
11617;DHT22;5864;52.998;9.068;2023-01-05T14:48:05;9.30;99.90
11617;DHT22;5864;52.998;9.068;2023-01-05T14:50:37;9.20;99.90
11617;DHT22;5864;52.998;9.068;2023-01-05T14:53:11;9.20;99.90
11617;DHT22;5864;52.998;9.068;2023-01-05T14:55:41;9.10;99.90
11617;DHT22;5864;52.998;9.068;2023-01-05T14:58:58;9.20;99.90
11617;DHT22;5864;52.998;9.068;2023-01-05T15:01:34;9.10;99.90
11617;DHT22;5864;52.998;9.068;2023-01-05T15:04:07;9.10;99.90
11617;DHT22;5864;52.998;9.068;2023-01-05T15:06:48;9.10;99.90
11617;DHT22;5864;52.998;9.068;2023-01-05T15:09:30;9.00;99.90
11617;DHT22;5864;52.998;9.068;2023-01-05T15:12:29;9.00;99.90
11617;DHT22;5864;52.998;9.068;2023-01-05T15:15:19;9.00;99.90
11617;DHT22;5864;52.998;9.068;2023-01-05T15:27:15;9.00;99.90
11617;DHT22;5864;52.998;9.068;2023-01-05T15:29:54;9.10;99.90
11617;DHT22;5864;52.998;9.068;2023-01-05T15:32:27;9.10;99.90
11617;DHT22;5864;52.998;9.068;2023-01-05T15:35:10;9.10;99.90
11617;DHT22;5864;52.998;9.068;2023-01-05T15:37:53;9.10;99.90
11617;DHT22;5864;52.998;9.068;2023-01-05T15:40:29;9.00;99.90
11617;DHT22;5864;52.998;9.068;2023-01-05T15:43:01;9.10;99.90
11617;DHT22;5864;52.998;9.068;2023-01-05T15:45:31;9.10;99.90
11617;DHT22;5864;52.998;9.068;2023-01-05T15:48:08;9.10;99.90
11617;DHT22;5864;52.998;9.068;2023-01-05T15:50:44;9.20;99.90
11617;DHT22;5864;52.998;9.068;2023-01-05T15:53:24;9.20;99.90
11617;DHT22;5864;52.998;9.068;2023-01-05T15:55:52;9.20;99.90
11617;DHT22;5864;52.998;9.068;2023-01-05T15:58:22;9.10;99.90
11617;DHT22;5864;52.998;9.068;2023-01-05T16:01:02;9.10;99.90
11617;DHT22;5864;52.998;9.068;2023-01-05T16:03:31;9.10;99.90
11617;DHT22;5864;52.998;9.068;2023-01-05T16:06:02;9.20;99.90
11617;DHT22;5864;52.998;9.068;2023-01-05T16:08:32;9.20;99.90
11617;DHT22;5864;52.998;9.068;2023-01-05T16:11:02;9.10;99.90
11617;DHT22;5864;52.998;9.068;2023-01-05T16:13:37;9.20;99.90
11617;DHT22;5864;52.998;9.068;2023-01-05T16:16:11;9.20;99.90
11617;DHT22;5864;52.998;9.068;2023-01-05T16:18:42;9.20;99.90
11617;DHT22;5864;52.998;9.068;2023-01-05T16:21:21;9.20;99.90
11617;DHT22;5864;52.998;9.068;2023-01-05T16:23:52;9.20;99.90
11617;DHT22;5864;52.998;9.068;2023-01-05T16:26:21;9.20;99.90
11617;DHT22;5864;52.998;9.068;2023-01-05T16:28:50;9.20;99.90
11617;DHT22;5864;52.998;9.068;2023-01-05T16:31:26;9.20;99.90
11617;DHT22;5864;52.998;9.068;2023-01-05T16:34:03;9.20;99.90
11617;DHT22;5864;52.998;9.068;2023-01-05T16:36:31;9.20;99.90
11617;DHT22;5864;52.998;9.068;2023-01-05T16:39:11;9.20;99.90
11617;DHT22;5864;52.998;9.068;2023-01-05T16:41:39;9.20;99.90
11617;DHT22;5864;52.998;9.068;2023-01-05T16:44:28;9.20;99.90
11617;DHT22;5864;52.998;9.068;2023-01-05T16:47:05;9.20;99.90
11617;DHT22;5864;52.998;9.068;2023-01-05T16:49:35;9.20;99.90
11617;DHT22;5864;52.998;9.068;2023-01-05T16:52:06;9.20;99.90
11617;DHT22;5864;52.998;9.068;2023-01-05T16:54:35;9.20;99.90
11617;DHT22;5864;52.998;9.068;2023-01-05T16:57:31;9.20;99.90
11617;DHT22;5864;52.998;9.068;2023-01-05T17:00:03;9.20;99.90
11617;DHT22;5864;52.998;9.068;2023-01-05T17:02:51;9.10;99.90
11617;DHT22;5864;52.998;9.068;2023-01-05T17:05:22;9.10;99.90
11617;DHT22;5864;52.998;9.068;2023-01-05T17:07:55;9.10;99.90
11617;DHT22;5864;52.998;9.068;2023-01-05T17:10:25;9.20;99.90
11617;DHT22;5864;52.998;9.068;2023-01-05T17:12:58;9.20;99.90
11617;DHT22;5864;52.998;9.068;2023-01-05T17:15:30;9.20;99.90